Time;durP1;ratioP1;P1;durP2;ratioP2;P2;SDS_P1;SDS_P2;PMS_P1;PMS_P2;Temp;Humidity;BMP_temperature;BMP_pressure;BME280_temperature;BME280_humidity;BME280_pressure;Samples;Min_cycle;Max_cycle;Signal;HPM_P1;HPM_P2
2021/11/11 00:07:49;;;;;;;;;;;7.90;82.60;;;;;;20831233;28;76222;-73
2021/11/11 00:17:51;;;;;;;;;;;7.80;82.50;;;;;;20829078;28;76566;-74
2021/11/11 00:27:52;;;;;;;;;;;7.60;82.70;;;;;;20827695;28;75776;-72
2021/11/11 00:37:57;;;;;;;;;;;7.50;82.40;;;;;;20828524;28;76119;-72
2021/11/11 00:47:58;;;;;;;;;;;7.50;83.00;;;;;;20827723;28;76668;-75
2021/11/11 00:58:01;;;;;;;;;;;7.50;83.20;;;;;;20826231;28;74491;-75
2021/11/11 01:08:03;;;;;;;;;;;7.40;84.20;;;;;;20826032;28;76953;-75
2021/11/11 01:18:05;;;;;;;;;;;7.30;83.90;;;;;;20825084;28;76667;-75
2021/11/11 01:28:08;;;;;;;;;;;7.30;84.10;;;;;;20823764;28;75696;-74
2021/11/11 01:38:10;;;;;;;;;;;7.10;83.20;;;;;;20823125;28;75822;-73
2021/11/11 01:48:13;;;;;;;;;;;6.90;83.00;;;;;;20824044;28;76401;-74
2021/11/11 01:58:15;;;;;;;;;;;6.70;84.00;;;;;;20822832;28;76448;-73
2021/11/11 02:08:19;;;;;;;;;;;6.60;84.40;;;;;;20821992;28;75659;-74
2021/11/11 02:18:22;;;;;;;;;;;6.60;84.60;;;;;;20821965;28;75577;-73
2021/11/11 02:28:25;;;;;;;;;;;6.50;84.60;;;;;;20821346;28;75455;-74
2021/11/11 02:38:29;;;;;;;;;;;6.40;84.70;;;;;;20820109;28;75833;-72
2021/11/11 02:48:32;;;;;;;;;;;6.30;84.70;;;;;;20829584;28;76765;-73
2021/11/11 02:58:37;;;;;;;;;;;6.30;84.90;;;;;;20834436;28;77317;-73
2021/11/11 03:08:41;;;;;;;;;;;6.20;84.50;;;;;;20832823;28;75578;-73
2021/11/11 03:18:44;;;;;;;;;;;6.20;84.40;;;;;;20823916;28;75708;-73
2021/11/11 03:28:52;;;;;;;;;;;6.10;84.50;;;;;;20826120;28;76040;-72
2021/11/11 03:39:07;;;;;;;;;;;6.00;84.30;;;;;;20825829;28;76875;-72
2021/11/11 03:49:10;;;;;;;;;;;6.00;84.80;;;;;;20827496;28;76891;-72
2021/11/11 03:59:15;;;;;;;;;;;6.00;85.00;;;;;;20826646;28;75769;-73
2021/11/11 04:09:20;;;;;;;;;;;5.90;84.50;;;;;;20827032;28;75755;-73
2021/11/11 04:19:24;;;;;;;;;;;5.90;84.40;;;;;;20857606;28;76131;-73
2021/11/11 04:29:32;;;;;;;;;;;5.80;84.40;;;;;;20890147;27;76027;-74
2021/11/11 05:10:45;;;;;;;;;;;5.70;85.30;;;;;;20831626;28;74580;-73
2021/11/11 05:20:50;;;;;;;;;;;5.50;84.80;;;;;;20865056;28;75863;-73
2021/11/11 05:30:55;;;;;;;;;;;5.40;84.70;;;;;;20857289;28;76927;-73
2021/11/11 05:40:59;;;;;;;;;;;5.30;84.80;;;;;;20904781;27;75434;-73
2021/11/11 05:51:01;;;;;;;;;;;5.20;85.10;;;;;;20907351;27;75743;-73
2021/11/11 06:01:04;;;;;;;;;;;5.10;85.30;;;;;;20905341;28;75521;-72
2021/11/11 06:11:07;;;;;;;;;;;5.00;85.40;;;;;;20905753;27;74716;-72
2021/11/11 06:21:09;;;;;;;;;;;4.90;85.30;;;;;;20906273;28;74864;-72
2021/11/11 06:31:13;;;;;;;;;;;4.90;85.50;;;;;;20857814;27;76756;-72
2021/11/11 06:41:16;;;;;;;;;;;4.80;85.20;;;;;;20842388;28;76052;-74
2021/11/11 06:51:19;;;;;;;;;;;4.70;85.60;;;;;;20862016;28;77154;-75
2021/11/11 07:01:21;;;;;;;;;;;4.80;85.40;;;;;;20864268;28;77959;-74
2021/11/11 07:11:24;;;;;;;;;;;;;;;;;;20874321;28;76286;-67
2021/11/11 07:21:27;;;;;;;;;;;4.80;85.40;;;;;;20861122;27;76081;-59
2021/11/11 07:31:30;;;;;;;;;;;5.00;85.60;;;;;;20880952;27;75986;-60
2021/11/11 07:41:33;;;;;;;;;;;5.20;85.20;;;;;;20876639;27;76806;-63
2021/11/11 07:59:13;;;;;;;;;;;5.70;84.70;;;;;;21046733;27;76276;-62
2021/11/11 08:09:17;;;;;;;;;;;6.00;84.10;;;;;;21044787;27;76787;-61
2021/11/11 08:19:19;;;;;;;;;;;6.30;84.30;;;;;;21042852;27;77034;-67
2021/11/11 08:29:21;;;;;;;;;;;7.40;80.80;;;;;;21042917;27;76883;-66
2021/11/11 08:39:22;;;;;;;;;;;7.20;81.70;;;;;;21046056;27;76625;-61
2021/11/11 08:49:24;;;;;;;;;;;7.40;82.50;;;;;;21045129;27;76005;-67
2021/11/11 08:59:26;;;;;;;;;;;9.00;77.10;;;;;;21043709;27;76164;-67
2021/11/11 09:09:29;;;;;;;;;;;8.60;78.80;;;;;;20989794;27;75503;-61
2021/11/11 09:19:32;;;;;;;;;;;10.00;76.60;;;;;;20986580;27;76479;-65
2021/11/11 09:29:35;;;;;;;;;;;9.90;76.70;;;;;;20981457;27;76560;-62
2021/11/11 09:39:38;;;;;;;;;;;12.60;72.90;;;;;;20971992;27;76005;-61
2021/11/11 09:49:40;;;;;;;;;;;12.40;69.50;;;;;;20984667;27;76443;-64
2021/11/11 09:59:42;;;;;;;;;;;11.60;73.50;;;;;;20980615;27;76569;-60
2021/11/11 10:09:45;;;;;;;;;;;;;;;;;;20967508;27;75834;-62
2021/11/11 10:19:48;;;;;;;;;;;20.80;62.50;;;;;;20983072;27;75845;-64
2021/11/11 10:30:06;;;;;;;;;;;28.90;38.00;;;;;;20983090;27;76378;-66
2021/11/11 10:40:08;;;;;;;;;;;;;;;;;;20974370;27;75176;-61
2021/11/11 10:50:14;;;;;;;;;;;33.10;33.20;;;;;;20976397;27;76606;-63
2021/11/11 11:00:28;;;;;;;;;;;34.40;35.20;;;;;;20976877;27;76728;-60
2021/11/11 11:10:30;;;;;;;;;;;35.70;29.90;;;;;;20968303;27;75853;-60
2021/11/11 11:20:34;;;;;;;;;;;36.00;31.30;;;;;;20970625;27;76175;-62
2021/11/11 11:30:41;;;;;;;;;;;37.90;28.30;;;;;;20976842;27;75935;-63
2021/11/11 11:40:43;;;;;;;;;;;36.40;31.60;;;;;;20971032;27;75897;-62
2021/11/11 11:50:49;;;;;;;;;;;35.70;34.20;;;;;;20976829;27;76320;-65
2021/11/11 12:01:09;;;;;;;;;;;35.40;35.50;;;;;;20974390;27;76759;-58
2021/11/11 12:42:30;;;;;;;;;;;29.70;36.40;;;;;;20981882;27;76887;-60
2021/11/11 12:52:31;;;;;;;;;;;27.00;50.30;;;;;;20981114;27;76014;-63
2021/11/11 13:02:48;;;;;;;;;;;26.60;56.40;;;;;;20972280;27;76745;-64
2021/11/11 13:13:09;;;;;;;;;;;26.90;51.00;;;;;;20969719;27;76422;-63
2021/11/11 13:23:30;;;;;;;;;;;28.90;43.40;;;;;;20977168;27;75958;-58
2021/11/11 14:04:49;;;;;;;;;;;30.70;42.00;;;;;;20982355;27;76925;-60
2021/11/11 15:17:04;;;;;;;;;;;19.30;64.50;;;;;;20992656;27;75722;-65
2021/11/11 16:30:03;;;;;;;;;;;16.40;60.00;;;;;;20904284;28;75539;-59
2021/11/11 16:40:06;;;;;;;;;;;15.90;58.10;;;;;;20917996;27;75776;-62
2021/11/11 16:50:11;;;;;;;;;;;15.60;59.70;;;;;;20914287;27;75415;-59
2021/11/11 17:00:15;;;;;;;;;;;15.30;61.20;;;;;;20917160;27;74847;-60
2021/11/11 17:10:18;;;;;;;;;;;14.90;61.40;;;;;;20932814;27;76685;-66
2021/11/11 17:20:22;;;;;;;;;;;14.40;62.80;;;;;;20916983;27;76566;-65
2021/11/11 17:30:25;;;;;;;;;;;14.10;64.40;;;;;;20945066;27;75919;-63
2021/11/11 17:40:28;;;;;;;;;;;13.70;64.90;;;;;;20990479;27;76810;-62
2021/11/11 17:50:34;;;;;;;;;;;13.50;65.20;;;;;;20990356;27;75437;-62
2021/11/11 18:00:38;;;;;;;;;;;13.20;66.10;;;;;;20998462;27;74647;-61
2021/11/11 18:10:42;;;;;;;;;;;12.90;66.60;;;;;;20958012;27;75694;-63
2021/11/11 18:20:44;;;;;;;;;;;12.70;67.30;;;;;;20917432;27;76718;-62
2021/11/11 18:30:46;;;;;;;;;;;12.50;67.80;;;;;;20909383;27;74816;-63
2021/11/11 18:40:50;;;;;;;;;;;12.40;68.20;;;;;;20909867;27;75561;-65
2021/11/11 18:51:15;;;;;;;;;;;12.20;68.30;;;;;;20940131;27;74690;-75
2021/11/11 19:01:34;;;;;;;;;;;12.10;68.50;;;;;;20924456;27;75234;-82
2021/11/11 19:11:41;;;;;;;;;;;11.90;68.60;;;;;;20946966;27;75524;-76
2021/11/11 20:46:35;;;;;;;;;;;10.60;68.70;;;;;;20679187;28;76154;-85
2021/11/11 20:57:46;;;;;;;;;;;10.40;68.10;;;;;;20356796;28;75468;-86
2021/11/11 21:22:09;;;;;;;;;;;10.10;68.90;;;;;;21128417;27;75427;-79
2021/11/11 21:32:33;;;;;;;;;;;9.90;69.10;;;;;;21047521;27;75745;-82
2021/11/11 21:43:17;;;;;;;;;;;9.70;68.70;;;;;;20967542;27;75801;-82
2021/11/11 21:53:58;;;;;;;;;;;9.50;69.40;;;;;;21028348;27;75605;-84
2021/11/11 23:43:57;;;;;;;;;;;8.10;70.10;;;;;;20819683;28;74620;-83
